Time;durP1;ratioP1;P1;durP2;ratioP2;P2;SDS_P1;SDS_P2;PMS_P1;PMS_P2;Temp;Humidity;BMP_temperature;BMP_pressure;BME280_temperature;BME280_humidity;BME280_pressure;Samples;Min_cycle;Max_cycle;Signal;HPM_P1;HPM_P2
2022/09/25 00:00:14;;;;;;;5.27;4.60;;;;;;;;;;4976526;28;20529;-77
2022/09/25 00:02:40;;;;;;;4.73;4.30;;;;;;;;;;4992606;28;20198;-78
2022/09/25 00:05:06;;;;;;;6.37;4.27;;;;;;;;;;4993457;28;20287;-77
2022/09/25 00:07:32;;;;;;;4.80;4.40;;;;;;;;;;4992742;28;20278;-77
2022/09/25 00:09:58;;;;;;;4.77;4.33;;;;;;;;;;4993171;28;20176;-78
2022/09/25 00:12:24;;;;;;;7.70;4.57;;;;;;;;;;4976706;28;20190;-78
2022/09/25 00:14:51;;;;;;;5.23;4.43;;;;;;;;;;4993202;28;20187;-77
2022/09/25 00:17:17;;;;;;;5.50;5.00;;;;;;;;;;4994304;28;20222;-77
2022/09/25 00:19:49;;;;;;;5.53;4.90;;;;;;;;;;4994046;28;20188;-77
2022/09/25 00:22:16;;;;;;;5.57;4.37;;;;;;;;;;4992907;28;20266;-77
2022/09/25 00:24:42;;;;;;;5.07;4.47;;;;;;;;;;4992873;28;20203;-78
2022/09/25 00:27:08;;;;;;;5.57;5.07;;;;;;;;;;4978321;28;20705;-77
2022/09/25 00:29:35;;;;;;;5.00;4.50;;;;;;;;;;4996522;28;20184;-78
2022/09/25 00:32:02;;;;;;;5.57;5.07;;;;;;;;;;4980863;28;20183;-78
2022/09/25 00:34:28;;;;;;;5.90;5.30;;;;;;;;;;4980814;28;20187;-77
2022/09/25 00:36:54;;;;;;;5.83;4.80;;;;;;;;;;4980828;28;20208;-78
2022/09/25 00:39:20;;;;;;;5.10;4.60;;;;;;;;;;4980301;28;20190;-78
2022/09/25 00:41:46;;;;;;;6.10;5.37;;;;;;;;;;4980669;28;20192;-77
2022/09/25 00:44:31;;;;;;;5.53;5.03;;;;;;;;;;4997784;28;20187;-77
2022/09/25 00:46:57;;;;;;;5.73;5.20;;;;;;;;;;4996871;28;20199;-77
2022/09/25 00:49:25;;;;;;;5.80;5.00;;;;;;;;;;4996329;28;20180;-78
2022/09/25 00:52:03;;;;;;;6.57;4.60;;;;;;;;;;4997089;28;20193;-77
2022/09/25 00:54:30;;;;;;;5.13;4.63;;;;;;;;;;4996308;28;20185;-78
2022/09/25 00:56:57;;;;;;;6.27;5.67;;;;;;;;;;4997647;28;20188;-78
2022/09/25 00:59:29;;;;;;;5.93;5.33;;;;;;;;;;4980321;28;20245;-77
2022/09/25 01:01:55;;;;;;;6.67;5.20;;;;;;;;;;4996548;28;20205;-78
2022/09/25 01:04:22;;;;;;;7.27;5.23;;;;;;;;;;4980299;28;20204;-78
2022/09/25 01:06:48;;;;;;;6.00;5.40;;;;;;;;;;4980216;28;20199;-78
2022/09/25 01:09:14;;;;;;;6.27;5.17;;;;;;;;;;4979902;28;20191;-78
2022/09/25 01:11:40;;;;;;;5.57;5.00;;;;;;;;;;4996051;28;20168;-78
2022/09/25 01:14:08;;;;;;;5.60;5.10;;;;;;;;;;4996371;28;20234;-77
2022/09/25 01:16:58;;;;;;;5.40;4.90;;;;;;;;;;4979738;28;20227;-78
2022/09/25 01:19:24;;;;;;;5.97;5.37;;;;;;;;;;4995868;28;20176;-78
2022/09/25 01:22:10;;;;;;;5.63;5.13;;;;;;;;;;4996284;28;20182;-78
2022/09/25 01:24:48;;;;;;;5.47;4.97;;;;;;;;;;4997194;28;20203;-78
2022/09/25 01:27:32;;;;;;;6.93;5.20;;;;;;;;;;4995761;28;20230;-78
2022/09/25 01:30:04;;;;;;;6.47;5.20;;;;;;;;;;4996732;28;20168;-77
2022/09/25 01:32:36;;;;;;;5.57;4.77;;;;;;;;;;4979794;28;20254;-78
2022/09/25 01:35:22;;;;;;;5.50;5.00;;;;;;;;;;4995789;28;20298;-77
2022/09/25 01:37:58;;;;;;;5.80;5.20;;;;;;;;;;4985146;28;20213;-78
2022/09/25 01:40:29;;;;;;;5.33;4.83;;;;;;;;;;4996493;28;20190;-77
2022/09/25 01:42:57;;;;;;;5.90;5.30;;;;;;;;;;4995903;28;20238;-78
2022/09/25 01:45:32;;;;;;;5.70;5.20;;;;;;;;;;4995637;28;20207;-78
2022/09/25 01:48:00;;;;;;;7.90;4.93;;;;;;;;;;4995506;28;20171;-77
2022/09/25 01:50:33;;;;;;;5.60;4.93;;;;;;;;;;4995444;28;20175;-78
2022/09/25 01:53:01;;;;;;;6.03;4.90;;;;;;;;;;4994982;28;20256;-77
2022/09/25 01:55:31;;;;;;;5.03;4.50;;;;;;;;;;4979522;28;20314;-78
2022/09/25 01:58:04;;;;;;;5.77;5.10;;;;;;;;;;4995472;28;20180;-78
2022/09/25 02:00:31;;;;;;;5.13;4.63;;;;;;;;;;4995163;28;20183;-77
2022/09/25 02:03:01;;;;;;;5.60;5.00;;;;;;;;;;4996378;28;20199;-78
2022/09/25 02:05:30;;;;;;;6.10;5.50;;;;;;;;;;4978829;28;20207;-78
2022/09/25 02:08:07;;;;;;;5.80;5.20;;;;;;;;;;4995397;28;20172;-77
2022/09/25 02:10:35;;;;;;;5.40;4.90;;;;;;;;;;4996307;28;20187;-78
2022/09/25 02:13:21;;;;;;;5.40;4.87;;;;;;;;;;4995022;28;20631;-77
2022/09/25 02:15:58;;;;;;;5.47;4.97;;;;;;;;;;4995000;28;20181;-78
2022/09/25 02:21:29;;;;;;;5.83;5.33;;;;;;;;;;4995394;28;20238;-78
2022/09/25 02:23:55;;;;;;;6.47;5.40;;;;;;;;;;4994937;28;20180;-78
2022/09/25 02:26:31;;;;;;;6.67;5.73;;;;;;;;;;4995794;28;20674;-78
2022/09/25 02:28:58;;;;;;;6.13;5.57;;;;;;;;;;4978587;28;20191;-78
2022/09/25 02:31:54;;;;;;;6.10;5.00;;;;;;;;;;4994540;28;20190;-77
2022/09/25 02:34:20;;;;;;;6.57;5.30;;;;;;;;;;4982143;28;20643;-78
2022/09/25 02:36:47;;;;;;;6.97;5.13;;;;;;;;;;4994248;28;20203;-78
2022/09/25 02:39:14;;;;;;;5.60;5.00;;;;;;;;;;4994260;28;20214;-78
2022/09/25 02:41:40;;;;;;;6.80;5.37;;;;;;;;;;4978577;28;20190;-78
2022/09/25 02:44:13;;;;;;;6.73;5.50;;;;;;;;;;4995770;28;20179;-77
2022/09/25 02:46:48;;;;;;;7.27;5.40;;;;;;;;;;4994562;28;20192;-77
2022/09/25 02:49:24;;;;;;;6.17;5.30;;;;;;;;;;4994191;28;20171;-77
2022/09/25 02:52:09;;;;;;;7.33;5.40;;;;;;;;;;4993834;28;20196;-77
2022/09/25 02:54:40;;;;;;;7.07;6.23;;;;;;;;;;4994597;28;20211;-78
2022/09/25 02:57:11;;;;;;;6.33;5.73;;;;;;;;;;4994578;28;20223;-78
2022/09/25 02:59:40;;;;;;;6.37;5.77;;;;;;;;;;4994052;28;20199;-77
2022/09/25 03:02:07;;;;;;;6.07;5.47;;;;;;;;;;4994458;28;20179;-78
2022/09/25 03:04:35;;;;;;;7.67;6.17;;;;;;;;;;4994218;28;20298;-77
2022/09/25 03:07:01;;;;;;;6.17;5.57;;;;;;;;;;4994184;28;20210;-78
2022/09/25 03:09:29;;;;;;;7.97;5.67;;;;;;;;;;4994059;28;20178;-77
2022/09/25 03:11:56;;;;;;;8.57;6.70;;;;;;;;;;4995049;28;20200;-77
2022/09/25 03:14:22;;;;;;;6.80;6.10;;;;;;;;;;4977930;28;20555;-78
2022/09/25 03:16:59;;;;;;;6.57;5.97;;;;;;;;;;4994159;28;20669;-78
2022/09/25 03:19:27;;;;;;;7.13;5.87;;;;;;;;;;4993506;28;20183;-78
2022/09/25 03:21:53;;;;;;;6.90;5.80;;;;;;;;;;4977758;28;20192;-78
2022/09/25 03:24:20;;;;;;;6.07;5.53;;;;;;;;;;4977783;28;20219;-77
2022/09/25 03:26:46;;;;;;;6.97;5.90;;;;;;;;;;4993369;28;20218;-77
2022/09/25 03:29:13;;;;;;;6.90;6.20;;;;;;;;;;4993675;28;20187;-78
2022/09/25 03:31:41;;;;;;;6.40;5.80;;;;;;;;;;4993693;28;20218;-78
2022/09/25 03:34:07;;;;;;;6.93;6.30;;;;;;;;;;4977376;28;20203;-78
2022/09/25 03:36:33;;;;;;;7.10;6.40;;;;;;;;;;4994986;28;20196;-78
2022/09/25 03:38:59;;;;;;;8.13;6.50;;;;;;;;;;4977106;28;20186;-78
2022/09/25 03:41:27;;;;;;;7.90;7.10;;;;;;;;;;4993636;28;20599;-78
2022/09/25 03:43:55;;;;;;;8.70;6.40;;;;;;;;;;4993612;28;20216;-78
2022/09/25 03:46:22;;;;;;;8.27;6.60;;;;;;;;;;4993411;28;20274;-78
2022/09/25 03:48:49;;;;;;;7.60;6.90;;;;;;;;;;4992933;28;20622;-78
2022/09/25 03:51:15;;;;;;;7.57;6.73;;;;;;;;;;4993343;28;20179;-77
2022/09/25 03:53:41;;;;;;;8.20;7.10;;;;;;;;;;4993146;28;20183;-78
2022/09/25 03:56:08;;;;;;;8.67;7.27;;;;;;;;;;4993096;28;20285;-78
2022/09/25 03:58:35;;;;;;;9.60;8.17;;;;;;;;;;4993065;28;20270;-77
2022/09/25 04:01:01;;;;;;;10.30;8.20;;;;;;;;;;4977098;28;20245;-78
2022/09/25 04:03:28;;;;;;;8.93;8.07;;;;;;;;;;4992859;28;20187;-78
2022/09/25 04:05:57;;;;;;;8.00;7.20;;;;;;;;;;4993999;28;20207;-78
2022/09/25 04:08:24;;;;;;;10.23;8.17;;;;;;;;;;4993256;28;20176;-78
2022/09/25 04:10:50;;;;;;;10.07;8.37;;;;;;;;;;4992999;28;20168;-78
2022/09/25 04:13:18;;;;;;;8.70;7.80;;;;;;;;;;4977074;28;20183;-77
2022/09/25 04:15:45;;;;;;;7.80;7.00;;;;;;;;;;4977246;28;20241;-78
2022/09/25 04:18:11;;;;;;;8.30;7.50;;;;;;;;;;4993271;28;20180;-78
2022/09/25 04:20:37;;;;;;;8.50;7.60;;;;;;;;;;4976636;28;20188;-78
2022/09/25 04:23:03;;;;;;;9.53;7.63;;;;;;;;;;4993176;28;20186;-78
2022/09/25 04:25:29;;;;;;;10.17;8.40;;;;;;;;;;4977168;28;20215;-78
2022/09/25 04:27:56;;;;;;;10.97;9.43;;;;;;;;;;5015501;23;20270;-76
2022/09/25 04:30:22;;;;;;;11.37;9.07;;;;;;;;;;5007597;28;20179;-76
2022/09/25 04:35:33;;;;;;;10.17;8.60;;;;;;;;;;4991840;28;20199;-76
2022/09/25 04:38:00;;;;;;;11.13;9.03;;;;;;;;;;4989893;28;20745;-76
2022/09/25 04:40:26;;;;;;;11.47;8.97;;;;;;;;;;4955907;28;20271;-76
2022/09/25 04:42:56;;;;;;;10.47;8.80;;;;;;;;;;4971984;28;20176;-76
2022/09/25 04:45:22;;;;;;;11.23;8.87;;;;;;;;;;4971879;28;20204;-76
2022/09/25 04:47:48;;;;;;;11.93;9.83;;;;;;;;;;4971693;28;20204;-76
2022/09/25 04:50:15;;;;;;;14.90;10.43;;;;;;;;;;4955634;28;20184;-76
2022/09/25 04:52:41;;;;;;;12.70;10.13;;;;;;;;;;4971760;28;20187;-76
2022/09/25 04:55:07;;;;;;;14.57;10.63;;;;;;;;;;4955676;28;20189;-76
2022/09/25 04:57:33;;;;;;;15.40;11.07;;;;;;;;;;4956005;28;20205;-75
2022/09/25 04:59:59;;;;;;;14.97;11.13;;;;;;;;;;4971497;28;20255;-76
2022/09/25 05:02:28;;;;;;;13.53;10.63;;;;;;;;;;4955671;28;20618;-76
2022/09/25 05:04:54;;;;;;;15.20;11.47;;;;;;;;;;4955865;28;20689;-76
2022/09/25 05:07:20;;;;;;;12.93;10.60;;;;;;;;;;4955824;28;20201;-76
2022/09/25 05:09:46;;;;;;;15.40;11.70;;;;;;;;;;4955629;28;20190;-76
2022/09/25 05:12:12;;;;;;;14.13;10.33;;;;;;;;;;4955704;28;20180;-76
2022/09/25 05:14:41;;;;;;;15.70;10.53;;;;;;;;;;4957532;28;20188;-76
2022/09/25 05:17:07;;;;;;;11.63;9.70;;;;;;;;;;4959258;28;20204;-76
2022/09/25 05:19:34;;;;;;;13.67;9.83;;;;;;;;;;4975085;28;20211;-76
2022/09/25 05:22:00;;;;;;;14.93;10.93;;;;;;;;;;4975134;28;20192;-76
2022/09/25 05:24:26;;;;;;;14.30;10.03;;;;;;;;;;4958839;28;20194;-76
2022/09/25 05:26:52;;;;;;;12.30;9.37;;;;;;;;;;4958783;28;20223;-76
2022/09/25 05:29:18;;;;;;;13.23;9.53;;;;;;;;;;4958568;28;20197;-76
2022/09/25 05:31:47;;;;;;;14.13;9.57;;;;;;;;;;4958797;28;20184;-76
2022/09/25 05:34:14;;;;;;;12.83;10.07;;;;;;;;;;4974988;28;20208;-76
2022/09/25 05:36:40;;;;;;;12.37;9.77;;;;;;;;;;4974680;28;20196;-76
2022/09/25 05:39:06;;;;;;;12.67;9.80;;;;;;;;;;4974425;28;20183;-76
2022/09/25 05:41:33;;;;;;;12.33;9.20;;;;;;;;;;4974634;28;20181;-76
2022/09/25 05:44:01;;;;;;;11.60;9.27;;;;;;;;;;4974459;28;20259;-76
2022/09/25 05:46:27;;;;;;;12.93;9.50;;;;;;;;;;4975709;28;20307;-76
2022/09/25 05:48:54;;;;;;;13.30;9.83;;;;;;;;;;4974335;28;20262;-76
2022/09/25 05:51:20;;;;;;;11.83;9.70;;;;;;;;;;4974307;28;20204;-76
2022/09/25 05:53:46;;;;;;;11.23;9.27;;;;;;;;;;4958393;28;20177;-76
2022/09/25 05:56:12;;;;;;;10.80;9.00;;;;;;;;;;4958139;28;20211;-76
2022/09/25 05:58:38;;;;;;;11.77;9.30;;;;;;;;;;4975454;28;20176;-76
2022/09/25 06:01:05;;;;;;;12.80;10.23;;;;;;;;;;4974129;28;20191;-76
2022/09/25 06:03:31;;;;;;;13.47;9.97;;;;;;;;;;4958524;28;20207;-76
2022/09/25 06:05:58;;;;;;;11.83;9.43;;;;;;;;;;4958140;28;20675;-76
2022/09/25 06:08:25;;;;;;;13.57;9.30;;;;;;;;;;4975481;28;20272;-76
2022/09/25 06:10:52;;;;;;;12.40;9.97;;;;;;;;;;4973869;28;20267;-76
2022/09/25 06:13:18;;;;;;;11.20;9.23;;;;;;;;;;4974016;28;20189;-76
2022/09/25 06:15:44;;;;;;;11.70;10.30;;;;;;;;;;4957977;28;20187;-76
2022/09/25 06:18:10;;;;;;;14.17;10.03;;;;;;;;;;4957822;28;20212;-76
2022/09/25 06:20:36;;;;;;;12.90;9.67;;;;;;;;;;4957797;28;20187;-76
2022/09/25 06:23:02;;;;;;;12.40;9.57;;;;;;;;;;4973751;28;20187;-76
2022/09/25 06:25:31;;;;;;;12.60;10.17;;;;;;;;;;4957568;28;20207;-76
2022/09/25 06:27:59;;;;;;;12.37;9.97;;;;;;;;;;4973805;28;20599;-76
2022/09/25 06:30:33;;;;;;;12.60;10.07;;;;;;;;;;4973496;28;20645;-76
2022/09/25 06:32:59;;;;;;;12.97;9.57;;;;;;;;;;4974963;28;20253;-76
2022/09/25 06:35:26;;;;;;;12.27;9.47;;;;;;;;;;4973755;28;20184;-76
2022/09/25 06:37:56;;;;;;;12.17;9.80;;;;;;;;;;4973352;28;20195;-76
2022/09/25 06:40:22;;;;;;;12.90;9.90;;;;;;;;;;4973283;28;20718;-76
2022/09/25 06:42:51;;;;;;;13.87;10.73;;;;;;;;;;4957623;28;20217;-76
2022/09/25 06:45:17;;;;;;;14.17;10.40;;;;;;;;;;4957888;28;20232;-76
2022/09/25 06:47:43;;;;;;;13.90;10.27;;;;;;;;;;4957698;28;20264;-76
2022/09/25 06:50:11;;;;;;;13.80;10.00;;;;;;;;;;4957242;28;20664;-76
2022/09/25 06:52:43;;;;;;;11.83;9.53;;;;;;;;;;4957465;28;20695;-76
2022/09/25 06:55:10;;;;;;;11.07;9.20;;;;;;;;;;4973188;28;20257;-77
2022/09/25 06:57:36;;;;;;;12.07;9.33;;;;;;;;;;4957175;28;20229;-76
2022/09/25 07:00:06;;;;;;;12.33;10.43;;;;;;;;;;4957094;28;20659;-76
2022/09/25 07:05:17;;;;;;;12.80;10.20;;;;;;;;;;4974364;28;20207;-76
2022/09/25 07:07:45;;;;;;;12.47;10.43;;;;;;;;;;4957371;28;20315;-76
2022/09/25 07:10:11;;;;;;;15.80;12.30;;;;;;;;;;4972997;28;20192;-76
2022/09/25 07:12:38;;;;;;;14.80;10.97;;;;;;;;;;4973187;28;20192;-76
2022/09/25 07:15:05;;;;;;;17.43;12.33;;;;;;;;;;4972910;28;20227;-76
2022/09/25 07:17:31;;;;;;;18.03;12.37;;;;;;;;;;4972849;28;20221;-76
2022/09/25 07:19:57;;;;;;;17.97;12.83;;;;;;;;;;4972594;28;20639;-77
2022/09/25 07:22:23;;;;;;;15.77;12.13;;;;;;;;;;4957340;28;20193;-76
2022/09/25 07:24:49;;;;;;;16.97;12.67;;;;;;;;;;4972982;28;20200;-76
2022/09/25 07:27:15;;;;;;;16.87;12.17;;;;;;;;;;4956542;28;20224;-76
2022/09/25 07:29:41;;;;;;;17.27;12.73;;;;;;;;;;4956495;28;20188;-76
2022/09/25 07:32:07;;;;;;;16.87;13.13;;;;;;;;;;4956754;28;20184;-76
2022/09/25 07:34:36;;;;;;;19.47;13.87;;;;;;;;;;4972626;28;20234;-76
2022/09/25 07:37:02;;;;;;;18.87;13.47;;;;;;;;;;4973176;28;20196;-76
2022/09/25 07:39:30;;;;;;;19.17;13.10;;;;;;;;;;4956307;28;20180;-76
2022/09/25 07:41:56;;;;;;;18.83;12.60;;;;;;;;;;4956511;28;20176;-76
2022/09/25 07:44:22;;;;;;;17.03;12.37;;;;;;;;;;4972353;28;20192;-76
2022/09/25 07:46:48;;;;;;;17.70;12.83;;;;;;;;;;4956272;28;20201;-77
2022/09/25 07:49:14;;;;;;;17.90;12.23;;;;;;;;;;4972094;28;20299;-76
2022/09/25 07:51:40;;;;;;;17.13;12.73;;;;;;;;;;4956397;28;20193;-76
2022/09/25 07:54:06;;;;;;;18.03;13.27;;;;;;;;;;4956309;28;20176;-76
2022/09/25 07:56:36;;;;;;;17.00;11.77;;;;;;;;;;4972243;28;20200;-76
2022/09/25 07:59:03;;;;;;;16.13;11.53;;;;;;;;;;4972230;28;20180;-76
2022/09/25 08:01:29;;;;;;;17.03;11.93;;;;;;;;;;4972237;28;20184;-76
2022/09/25 08:03:55;;;;;;;16.43;12.03;;;;;;;;;;4972188;28;20191;-76
2022/09/25 08:06:21;;;;;;;15.97;11.43;;;;;;;;;;4972098;28;20208;-77
2022/09/25 08:08:47;;;;;;;16.60;12.17;;;;;;;;;;4956135;28;20681;-76
2022/09/25 08:11:14;;;;;;;16.53;11.63;;;;;;;;;;4955996;28;20554;-76
2022/09/25 08:13:41;;;;;;;15.60;11.60;;;;;;;;;;4972234;28;20654;-76
2022/09/25 08:16:12;;;;;;;17.43;13.17;;;;;;;;;;4972060;28;20554;-76
2022/09/25 08:18:40;;;;;;;19.43;13.20;;;;;;;;;;4973180;28;20190;-76
2022/09/25 08:21:07;;;;;;;16.57;12.10;;;;;;;;;;4972116;28;20207;-76
2022/09/25 08:23:33;;;;;;;15.37;11.93;;;;;;;;;;4972053;28;20231;-76
2022/09/25 08:25:59;;;;;;;17.07;11.63;;;;;;;;;;4971773;28;20211;-76
2022/09/25 08:28:25;;;;;;;15.30;11.13;;;;;;;;;;4971943;28;20181;-76
2022/09/25 08:30:51;;;;;;;15.53;11.63;;;;;;;;;;4972218;28;20276;-76
2022/09/25 08:33:17;;;;;;;14.93;11.53;;;;;;;;;;4956229;28;20180;-76
2022/09/25 08:35:43;;;;;;;14.70;11.70;;;;;;;;;;4956044;28;20258;-76
2022/09/25 08:38:11;;;;;;;13.60;11.10;;;;;;;;;;4971620;28;20200;-76
2022/09/25 08:40:39;;;;;;;14.73;11.50;;;;;;;;;;4971735;28;20177;-76
2022/09/25 08:43:07;;;;;;;15.07;11.60;;;;;;;;;;4971991;28;20593;-77
2022/09/25 08:51:07;;;;;;;15.97;10.83;;;;;;;;;;4976865;28;20546;-76
2022/09/25 08:53:34;;;;;;;14.33;10.80;;;;;;;;;;4975482;28;20623;-77
2022/09/25 08:56:13;;;;;;;13.97;10.83;;;;;;;;;;4975685;28;20172;-76
2022/09/25 08:58:41;;;;;;;14.87;11.07;;;;;;;;;;4961186;28;20188;-76
2022/09/25 09:01:11;;;;;;;13.07;10.50;;;;;;;;;;4975382;28;20176;-76
2022/09/25 09:03:43;;;;;;;11.97;9.80;;;;;;;;;;4976564;28;20227;-76
2022/09/25 09:06:13;;;;;;;14.33;10.67;;;;;;;;;;4975099;28;20246;-76
2022/09/25 09:08:40;;;;;;;13.47;10.13;;;;;;;;;;4975229;28;20635;-76
2022/09/25 09:11:08;;;;;;;13.47;10.67;;;;;;;;;;4975023;28;20296;-76
2022/09/25 09:13:41;;;;;;;13.57;10.30;;;;;;;;;;4976655;28;20545;-77
2022/09/25 09:16:15;;;;;;;14.60;11.07;;;;;;;;;;4975124;28;20176;-76
2022/09/25 09:18:42;;;;;;;14.40;11.40;;;;;;;;;;4974989;28;20192;-76
2022/09/25 09:21:14;;;;;;;12.73;10.60;;;;;;;;;;4975155;28;20263;-76
2022/09/25 09:23:53;;;;;;;13.60;10.80;;;;;;;;;;4975107;28;20180;-76
2022/09/25 09:26:29;;;;;;;14.43;10.90;;;;;;;;;;4974868;28;20219;-76
2022/09/25 09:28:54;;;;;;;15.13;11.67;;;;;;;;;;4974803;28;20207;-76
2022/09/25 09:31:27;;;;;;;12.70;10.20;;;;;;;;;;4974875;28;20180;-77
2022/09/25 09:34:11;;;;;;;13.73;11.20;;;;;;;;;;4976337;28;20176;-76
2022/09/25 09:36:41;;;;;;;13.00;10.47;;;;;;;;;;4974655;28;20294;-76
2022/09/25 09:39:19;;;;;;;13.13;10.60;;;;;;;;;;4974351;28;20176;-76
2022/09/25 09:41:57;;;;;;;15.17;10.60;;;;;;;;;;4974662;28;20190;-76
2022/09/25 09:44:30;;;;;;;12.90;10.57;;;;;;;;;;4975828;28;20639;-77
2022/09/25 09:47:10;;;;;;;12.90;10.30;;;;;;;;;;4974687;28;20200;-77
2022/09/25 09:49:40;;;;;;;14.07;10.73;;;;;;;;;;4974390;28;20172;-76
2022/09/25 09:52:16;;;;;;;13.23;10.23;;;;;;;;;;4974331;28;20181;-76
2022/09/25 09:54:51;;;;;;;14.23;10.90;;;;;;;;;;4974584;28;20180;-76
2022/09/25 09:57:27;;;;;;;12.80;9.97;;;;;;;;;;4974322;28;20235;-76
2022/09/25 09:59:55;;;;;;;12.70;10.33;;;;;;;;;;4973626;28;20184;-76
2022/09/25 10:02:39;;;;;;;14.33;10.40;;;;;;;;;;4974312;28;20185;-76
2022/09/25 10:05:15;;;;;;;12.23;10.37;;;;;;;;;;4958258;28;20619;-76
2022/09/25 10:07:42;;;;;;;13.10;10.40;;;;;;;;;;4974163;28;20216;-76
2022/09/25 10:10:15;;;;;;;14.33;10.60;;;;;;;;;;4958151;28;20176;-76
2022/09/25 10:12:46;;;;;;;15.43;10.77;;;;;;;;;;4974060;28;20187;-76
2022/09/25 10:15:33;;;;;;;13.83;10.87;;;;;;;;;;4958155;28;20667;-76
2022/09/25 10:18:00;;;;;;;15.20;10.90;;;;;;;;;;4974055;28;20204;-76
2022/09/25 10:20:28;;;;;;;13.53;10.80;;;;;;;;;;4973782;28;20207;-77
2022/09/25 10:22:55;;;;;;;13.93;10.63;;;;;;;;;;4957934;28;20184;-76
2022/09/25 10:25:37;;;;;;;12.60;10.37;;;;;;;;;;4957748;28;20231;-76
2022/09/25 10:28:22;;;;;;;12.43;10.23;;;;;;;;;;5013972;22;20310;-78
2022/09/25 10:30:49;;;;;;;13.43;10.60;;;;;;;;;;4994314;28;20181;-79
2022/09/25 10:33:19;;;;;;;11.50;9.30;;;;;;;;;;4994427;28;20654;-79
2022/09/25 10:35:45;;;;;;;14.07;10.90;;;;;;;;;;4994251;28;20222;-78
2022/09/25 10:38:28;;;;;;;12.97;10.37;;;;;;;;;;4978186;28;20204;-79
2022/09/25 10:41:06;;;;;;;14.90;11.00;;;;;;;;;;4994104;28;20172;-79
2022/09/25 10:43:32;;;;;;;11.33;9.63;;;;;;;;;;4993998;28;20263;-78
2022/09/25 10:46:05;;;;;;;13.83;11.30;;;;;;;;;;4994031;28;20195;-79
2022/09/25 10:51:19;;;;;;;12.70;9.97;;;;;;;;;;4994638;28;20573;-79
2022/09/25 10:53:46;;;;;;;13.17;10.30;;;;;;;;;;4994116;28;20168;-79
2022/09/25 10:56:19;;;;;;;11.63;9.13;;;;;;;;;;4994020;28;20206;-79
2022/09/25 10:58:50;;;;;;;11.53;9.50;;;;;;;;;;4993616;28;20274;-79
2022/09/25 11:01:17;;;;;;;11.33;8.80;;;;;;;;;;4994017;28;20184;-79
2022/09/25 11:03:56;;;;;;;10.30;8.90;;;;;;;;;;4977510;28;20207;-79
2022/09/25 11:06:24;;;;;;;10.93;9.30;;;;;;;;;;4977735;28;20600;-79
2022/09/25 11:09:13;;;;;;;11.87;9.37;;;;;;;;;;4993564;28;20171;-79
2022/09/25 11:11:40;;;;;;;11.67;9.53;;;;;;;;;;4992952;28;20290;-79
2022/09/25 11:14:27;;;;;;;12.47;9.73;;;;;;;;;;4995073;28;20233;-79
2022/09/25 11:16:56;;;;;;;11.13;9.30;;;;;;;;;;4993447;28;20290;-79
2022/09/25 11:19:30;;;;;;;12.67;9.80;;;;;;;;;;4977612;28;20274;-79
2022/09/25 11:22:11;;;;;;;10.40;9.00;;;;;;;;;;4994117;28;20181;-79
2022/09/25 11:24:50;;;;;;;9.57;8.13;;;;;;;;;;4993568;28;20175;-79
2022/09/25 11:27:39;;;;;;;10.10;8.33;;;;;;;;;;4995059;28;20227;-79
2022/09/25 11:30:15;;;;;;;9.50;8.30;;;;;;;;;;4993176;28;20179;-78
2022/09/25 11:32:47;;;;;;;10.13;8.50;;;;;;;;;;4993479;28;20179;-79
2022/09/25 11:35:21;;;;;;;9.97;8.50;;;;;;;;;;4993620;28;20202;-79
2022/09/25 11:37:50;;;;;;;11.03;8.60;;;;;;;;;;4993229;28;20195;-79
2022/09/25 11:43:09;;;;;;;10.23;8.33;;;;;;;;;;4994730;28;20721;-79
2022/09/25 11:45:50;;;;;;;8.97;7.10;;;;;;;;;;4993371;28;20203;-79
2022/09/25 11:48:22;;;;;;;9.97;8.10;;;;;;;;;;4992999;28;20192;-79
2022/09/25 11:50:54;;;;;;;8.47;7.37;;;;;;;;;;4993171;28;20176;-79
2022/09/25 11:53:22;;;;;;;8.23;7.37;;;;;;;;;;4995452;28;20168;-79
2022/09/25 11:55:56;;;;;;;9.93;7.93;;;;;;;;;;4993385;28;20279;-79
2022/09/25 11:58:28;;;;;;;10.37;8.10;;;;;;;;;;4993460;28;20203;-79
2022/09/25 12:00:54;;;;;;;10.50;8.23;;;;;;;;;;4993484;28;20176;-79
2022/09/25 12:03:34;;;;;;;9.60;8.33;;;;;;;;;;4992815;28;20250;-79
2022/09/25 12:06:21;;;;;;;9.77;8.40;;;;;;;;;;4993038;28;20214;-79
2022/09/25 12:08:53;;;;;;;10.80;8.60;;;;;;;;;;4992990;28;20627;-79
2022/09/25 12:11:26;;;;;;;10.90;7.90;;;;;;;;;;4993265;28;20552;-79
2022/09/25 12:13:53;;;;;;;9.27;7.77;;;;;;;;;;4993106;28;20630;-79
2022/09/25 12:16:33;;;;;;;8.80;7.57;;;;;;;;;;4992968;28;20190;-79
2022/09/25 12:18:59;;;;;;;11.90;8.67;;;;;;;;;;4994193;28;20176;-79
2022/09/25 12:21:32;;;;;;;11.57;9.00;;;;;;;;;;4992942;28;20202;-79
2022/09/25 12:24:04;;;;;;;17.20;14.30;;;;;;;;;;4996051;28;20226;-79
2022/09/25 12:26:39;;;;;;;13.43;10.73;;;;;;;;;;4997068;28;20218;-79
2022/09/25 12:29:27;;;;;;;13.03;11.33;;;;;;;;;;4996903;28;20171;-79
2022/09/25 12:31:53;;;;;;;14.83;12.57;;;;;;;;;;4997044;28;20179;-79
2022/09/25 12:34:49;;;;;;;10.63;9.27;;;;;;;;;;4996375;28;20218;-78
2022/09/25 12:37:27;;;;;;;15.97;14.37;;;;;;;;;;4978903;28;20212;-79
2022/09/25 12:39:58;;;;;;;13.47;11.53;;;;;;;;;;4996475;28;20557;-79
2022/09/25 12:42:30;;;;;;;13.90;11.77;;;;;;;;;;4998095;28;20251;-79
2022/09/25 12:44:56;;;;;;;9.93;7.70;;;;;;;;;;4996228;28;20204;-79
2022/09/25 12:47:33;;;;;;;10.47;8.27;;;;;;;;;;4996804;28;20206;-79
2022/09/25 12:50:08;;;;;;;12.00;9.63;;;;;;;;;;4980501;28;20313;-79
2022/09/25 12:52:40;;;;;;;11.63;9.77;;;;;;;;;;4996836;28;20566;-79
2022/09/25 12:55:17;;;;;;;10.20;8.90;;;;;;;;;;4996407;28;20198;-79
2022/09/25 12:57:48;;;;;;;9.87;8.53;;;;;;;;;;4996225;28;20207;-79
2022/09/25 13:00:17;;;;;;;8.90;7.80;;;;;;;;;;4996331;28;20179;-79
2022/09/25 13:03:02;;;;;;;9.03;7.10;;;;;;;;;;4996550;28;20227;-79
2022/09/25 13:05:32;;;;;;;10.23;6.93;;;;;;;;;;4997331;28;20231;-79
2022/09/25 13:08:05;;;;;;;8.83;6.97;;;;;;;;;;4997351;28;20223;-79
2022/09/25 13:10:50;;;;;;;7.67;6.87;;;;;;;;;;4995754;28;20175;-79
2022/09/25 13:13:18;;;;;;;8.17;6.33;;;;;;;;;;4996229;28;20188;-80
2022/09/25 13:15:47;;;;;;;9.47;6.90;;;;;;;;;;4996070;28;20207;-79
2022/09/25 13:18:16;;;;;;;10.07;7.80;;;;;;;;;;4980051;28;20207;-80
2022/09/25 13:20:53;;;;;;;7.47;6.67;;;;;;;;;;4995855;28;20594;-79
2022/09/25 13:23:19;;;;;;;7.57;6.10;;;;;;;;;;4996178;28;20642;-79
2022/09/25 13:25:45;;;;;;;8.80;6.07;;;;;;;;;;4995764;28;20210;-79
2022/09/25 13:28:22;;;;;;;6.10;5.50;;;;;;;;;;4995753;28;20207;-79
2022/09/25 13:30:59;;;;;;;7.83;6.00;;;;;;;;;;4995611;28;20183;-79
2022/09/25 13:33:25;;;;;;;6.50;5.50;;;;;;;;;;4995818;28;20225;-79
2022/09/25 13:36:05;;;;;;;8.73;5.27;;;;;;;;;;4994938;28;20175;-79
2022/09/25 13:41:16;;;;;;;5.20;4.70;;;;;;;;;;4996015;28;20234;-79
2022/09/25 13:43:43;;;;;;;8.83;5.13;;;;;;;;;;4995474;28;20179;-79
2022/09/25 13:46:32;;;;;;;6.10;4.77;;;;;;;;;;4979117;28;20216;-80
2022/09/25 13:49:18;;;;;;;8.20;7.00;;;;;;;;;;4996597;28;20195;-79
2022/09/25 13:51:44;;;;;;;6.03;4.60;;;;;;;;;;4995275;28;20180;-79
2022/09/25 13:54:10;;;;;;;5.97;4.53;;;;;;;;;;4995392;28;20184;-79
2022/09/25 13:56:43;;;;;;;5.97;4.17;;;;;;;;;;4996257;28;20651;-79
2022/09/25 13:59:11;;;;;;;5.27;4.03;;;;;;;;;;4995191;28;20552;-79
2022/09/25 14:01:44;;;;;;;4.40;3.37;;;;;;;;;;4994949;28;20191;-79
2022/09/25 14:04:16;;;;;;;4.43;3.40;;;;;;;;;;4978862;28;20187;-79
2022/09/25 14:06:46;;;;;;;4.27;3.30;;;;;;;;;;4995158;28;20222;-79
2022/09/25 14:09:13;;;;;;;4.90;3.50;;;;;;;;;;4995120;28;20351;-79
2022/09/25 14:11:40;;;;;;;6.00;3.37;;;;;;;;;;4978823;28;20183;-79
2022/09/25 14:14:14;;;;;;;4.63;3.67;;;;;;;;;;4994731;28;20183;-79
2022/09/25 14:16:49;;;;;;;6.33;3.67;;;;;;;;;;4994696;28;20582;-79
2022/09/25 14:19:20;;;;;;;5.67;3.80;;;;;;;;;;4994775;28;20175;-79
2022/09/25 14:21:47;;;;;;;6.53;3.33;;;;;;;;;;4978763;28;20187;-79
2022/09/25 14:24:19;;;;;;;4.77;3.33;;;;;;;;;;4978622;28;20222;-79
2022/09/25 14:26:46;;;;;;;5.53;3.57;;;;;;;;;;4994300;28;20225;-79
2022/09/25 14:29:17;;;;;;;4.17;3.13;;;;;;;;;;4994458;28;20175;-79
2022/09/25 14:31:46;;;;;;;5.50;3.03;;;;;;;;;;4994647;28;20180;-79
2022/09/25 14:34:36;;;;;;;5.63;3.40;;;;;;;;;;4994508;28;20180;-79
2022/09/25 14:37:03;;;;;;;4.60;3.10;;;;;;;;;;4994270;28;20203;-79
2022/09/25 14:39:36;;;;;;;7.67;3.23;;;;;;;;;;4994368;28;20180;-79
2022/09/25 14:42:03;;;;;;;4.73;3.30;;;;;;;;;;4994357;28;20186;-79
2022/09/25 14:44:56;;;;;;;6.53;3.53;;;;;;;;;;4994504;28;20180;-79
2022/09/25 14:47:25;;;;;;;5.87;3.30;;;;;;;;;;4994414;28;20772;-79
2022/09/25 14:49:53;;;;;;;5.57;3.43;;;;;;;;;;4993924;28;20191;-79
2022/09/25 14:52:22;;;;;;;5.83;3.40;;;;;;;;;;4977901;28;20203;-79
2022/09/25 14:54:50;;;;;;;3.97;3.20;;;;;;;;;;4995887;28;20168;-79
2022/09/25 14:57:18;;;;;;;4.33;3.20;;;;;;;;;;4977647;28;20200;-79
2022/09/25 14:59:46;;;;;;;4.47;3.20;;;;;;;;;;4993885;28;20184;-79
2022/09/25 15:02:35;;;;;;;5.57;4.40;;;;;;;;;;4994023;28;20182;-79
2022/09/25 15:05:24;;;;;;;5.17;3.43;;;;;;;;;;4993840;28;20697;-80
2022/09/25 15:07:51;;;;;;;6.23;4.47;;;;;;;;;;4988348;28;20204;-79
2022/09/25 15:10:27;;;;;;;6.03;4.47;;;;;;;;;;4977550;28;20180;-79